Rechercher aéroport 
image banner adimage banner adimage banner ad
image banner ad

CN49 - Sutter Roseville Medical Center

Situé à Roseville, United States

ICAO - CN49, IATA -

Données fournies par Airmate  

Information générale

Coordonnées: N38°46'1" W121°14'53"
Élévation : 286 feet MSL.
Variation magnétique : 15° East
Voir autres Aéroports à California

Données opérationnelles

Special qualification required
Heure actuelle UTC:
Heure actuelle locale:
Météo à : KMCC - Mc Clellan Airfield ( 17 km )
METAR: KMCC 262235Z AUTO 17014KT 10SM CLR 31/06 A2983 RMK AO2
TAF: KMCC 261720Z 2618/2718 18011KT P6SM BKN200 FM262300 18012G19KT P6SM SCT150 BKN200 FM270600 17009KT P6SM BKN150
Voir NOTAMs / SUP AIP / TFR affectant cet aéroport [VIEW]
Fréquences de communication: [VIEW]

Pistes:

Coordonnées de l'aéroport

Adresse: Roseville United States

Vue satellite de CN49